Avon, IL

2:25 PM CDT on April 26, 2015 (GMT -0500)
MesoWest | | Change Station
CLOSE
Current Station
Personal Weather Station
Location: Ellisville, IL
Elevation: 487 ft
Nearby Weather Stations

Elev 487 ft 40.57 °N, 90.30 °W | Updated 45 minutes ago

Clear
Clear
60 °F
Feels Like 60 °F
N
3
Wind Variable Wind from North
Gusts 14.0 mph

Today
High -- | Low -- °F
--% Chance of Precip.
Yesterday
High -- | Low -- °F
Precip. -- in
6:07 AM 7:52 PM
First Quarter, 58% visible
Pressure 30.03 in
Visibility 10.0 miles
Clouds Clear
Dew Point 33 °F
Humidity 36%
Rainfall in
Snow Depth Not available.
UV 9 out of 12
Pollen 10.40 out of 12
Air Quality Not available.
Flu Activity Regional
METAR KMQB 261915Z AUTO 06013G16KT 10SM CLR 14/02 A3003 RMK AO2 T01430019

More Conditions Fewer Conditions

Pressure 30.03 in
Visibility 10.0 miles
Clouds Clear
Dew Point 33 °F
Humidity 36%
Rainfall in
Snow Depth Not available.
UV 9 out of 12
Pollen 10.40 out of 12
Air Quality Not available.
Flu Activity Regional
METAR KMQB 261915Z AUTO 06013G16KT 10SM CLR 14/02 A3003 RMK AO2 T01430019

More Conditions Fewer Conditions

The full scope of the disaster following a powerful 7.8-magnitude earthquake in Nepal may not come into view for days, but global charities are already sending emergency aid. Click to see how you can help.

10-Day Weather Forecast

Almanac

Astronomy

Apr. 26, 2015 Rise Set
Actual Time
Civil Twilight
Nautical Twilight
Astronomical Twilight
Moon
Length of Visible Light
Length of Day
Tomorrow will be .
, % of the Moon is Illuminated

Today's Extremes

State Highs State Lows

Community

WunderPhotos

Upload Photos

1,817,097 photos uploaded!

WunderBlogs® & News

Nearby

Air Quality

  Air Quality AQ Index Pollutant
Not available.

Snow Depth

Station Depth Elevation

Earthquake Activity

City Distance Mag. Time & Date
Minimum magnitude displayed is 2.5.

Coastal Water Temperatures

Place Temperature

Stations

Nearby Weather Stations

Station Location Temp. Windchill Dew Point Humidity Wind Precip. Elev Updated Type